Ana Sayfa
METAR-TAF:

METAR-TAF

Havaalanları :

Woodward, Oklahoma, Amerika Birleşik Devletleri

Enlem: 36-26-12N, Boylam: 099-31-16W, yükseklik: 667 m

Güncel hava durumu gözlemi

Rapor saat 10:50 UTC de 34 dakika önce yapıldı.
Rüzgar güneydan 15 kt ve 19 kt'a kadar ani rüzgarlar
Sıcaklık 22°C
Nem 73%
Basınç 1011 hPa
Görüş mesafesi: 16.1 km
Açık gökyüzü

METAR: KWWR 161050Z AUTO 19015G19KT 10SM CLR 22/17 A2985 RMK AO2 LTG DSNT SE AND S

Saat: 06:24 (11:24 UTC)

Tahmin

Rapor saat 05:20 UTC de 6 saat ve 4 dakika önce yapıldı.
Ayın 16'si saat 06 UTC'den ayın 17'si saat 06 UTC'ye kadar geçerli Tahmin
Rüzgar güneydan 15 kt ve 23 kt'a kadar ani rüzgarlar
Görüş mesafesi: 10 km
15000 ft yükseklikte parçalı bulutlu

TAF: KWWR 160520Z 1606/1706 17015G23KT P6SM SCT150

4.000'den fazla havaalanı için hava durumu gözlemleri ve tahminleri (METAR ve TAF raporları).

Kullanılabilir istasyonlar harita üzerinde sarı ve kırmızı noktalarla gösterilir.

İstasyonun adını görmek için fareyi noktanın üzerinde gezdirin.

Sonrasında hava gözlem ve tahminlerini görmek için tıklayın.

Haritayı değiştirmek için: yaklaştırmak için siyah artı işaretli yeşil düğmeye ve uzaklaştırmak için de eksi işaretli düğmeye hızla tıklayın; bitişik haritalar için yeşil okları kullanın.


METAR-TAF: